sensor_id;sensor_type;location;lat;lon;timestamp;P1;durP1;ratioP1;P2;durP2;ratioP2
62925;SDS011;55732;52.248;-0.844;2023-03-20T00:03:44;11.40;;;2.30;;
62925;SDS011;55732;52.248;-0.844;2023-03-20T00:06:16;8.80;;;2.20;;
62925;SDS011;55732;52.248;-0.844;2023-03-20T00:08:44;10.50;;;2.40;;
62925;SDS011;55732;52.248;-0.844;2023-03-20T00:13:58;6.50;;;2.00;;
62925;SDS011;55732;52.248;-0.844;2023-03-20T00:16:29;7.70;;;2.70;;
62925;SDS011;55732;52.248;-0.844;2023-03-20T00:18:59;7.10;;;2.00;;
62925;SDS011;55732;52.248;-0.844;2023-03-20T00:21:25;10.60;;;2.90;;
62925;SDS011;55732;52.248;-0.844;2023-03-20T00:23:52;15.10;;;2.50;;
62925;SDS011;55732;52.248;-0.844;2023-03-20T00:26:18;6.70;;;2.30;;
62925;SDS011;55732;52.248;-0.844;2023-03-20T00:28:47;8.60;;;2.20;;
62925;SDS011;55732;52.248;-0.844;2023-03-20T00:33:56;7.90;;;2.20;;
62925;SDS011;55732;52.248;-0.844;2023-03-20T00:36:24;12.20;;;2.40;;
62925;SDS011;55732;52.248;-0.844;2023-03-20T00:38:50;9.70;;;2.30;;
62925;SDS011;55732;52.248;-0.844;2023-03-20T00:43:48;10.20;;;2.50;;
62925;SDS011;55732;52.248;-0.844;2023-03-20T00:46:17;5.70;;;2.10;;
62925;SDS011;55732;52.248;-0.844;2023-03-20T00:48:43;7.90;;;2.50;;
62925;SDS011;55732;52.248;-0.844;2023-03-20T00:51:09;7.30;;;2.40;;
62925;SDS011;55732;52.248;-0.844;2023-03-20T00:53:35;7.90;;;2.60;;
62925;SDS011;55732;52.248;-0.844;2023-03-20T00:56:01;8.90;;;2.60;;
62925;SDS011;55732;52.248;-0.844;2023-03-20T00:58:27;4.40;;;2.00;;
62925;SDS011;55732;52.248;-0.844;2023-03-20T01:00:52;10.10;;;2.50;;
62925;SDS011;55732;52.248;-0.844;2023-03-20T01:03:19;7.70;;;2.40;;
62925;SDS011;55732;52.248;-0.844;2023-03-20T01:05:48;10.50;;;2.50;;
62925;SDS011;55732;52.248;-0.844;2023-03-20T01:10:40;9.30;;;2.40;;
62925;SDS011;55732;52.248;-0.844;2023-03-20T01:15:43;7.20;;;2.30;;
62925;SDS011;55732;52.248;-0.844;2023-03-20T01:18:11;10.00;;;2.90;;
62925;SDS011;55732;52.248;-0.844;2023-03-20T01:20:38;8.60;;;2.80;;
62925;SDS011;55732;52.248;-0.844;2023-03-20T01:23:04;7.90;;;2.20;;
62925;SDS011;55732;52.248;-0.844;2023-03-20T01:25:30;7.70;;;2.40;;
62925;SDS011;55732;52.248;-0.844;2023-03-20T01:27:56;7.60;;;2.30;;
62925;SDS011;55732;52.248;-0.844;2023-03-20T01:30:23;6.90;;;2.40;;
62925;SDS011;55732;52.248;-0.844;2023-03-20T01:32:51;10.20;;;2.30;;
62925;SDS011;55732;52.248;-0.844;2023-03-20T01:35:19;10.40;;;2.40;;
62925;SDS011;55732;52.248;-0.844;2023-03-20T01:37:46;7.50;;;2.30;;
62925;SDS011;55732;52.248;-0.844;2023-03-20T01:40:32;7.30;;;2.30;;
62925;SDS011;55732;52.248;-0.844;2023-03-20T01:43:04;13.70;;;2.70;;
62925;SDS011;55732;52.248;-0.844;2023-03-20T01:51:13;6.60;;;2.50;;
62925;SDS011;55732;52.248;-0.844;2023-03-20T01:53:39;9.60;;;2.50;;
62925;SDS011;55732;52.248;-0.844;2023-03-20T01:56:05;7.20;;;2.60;;
62925;SDS011;55732;52.248;-0.844;2023-03-20T01:58:32;7.90;;;2.20;;
62925;SDS011;55732;52.248;-0.844;2023-03-20T02:01:03;9.40;;;2.50;;
62925;SDS011;55732;52.248;-0.844;2023-03-20T02:03:30;13.00;;;2.70;;
62925;SDS011;55732;52.248;-0.844;2023-03-20T02:05:57;9.50;;;2.10;;
62925;SDS011;55732;52.248;-0.844;2023-03-20T02:10:57;6.30;;;1.90;;
62925;SDS011;55732;52.248;-0.844;2023-03-20T02:13:25;7.30;;;2.10;;
62925;SDS011;55732;52.248;-0.844;2023-03-20T02:18:32;11.80;;;2.50;;
62925;SDS011;55732;52.248;-0.844;2023-03-20T02:40:04;8.30;;;2.40;;
62925;SDS011;55732;52.248;-0.844;2023-03-20T02:42:39;10.70;;;2.40;;
62925;SDS011;55732;52.248;-0.844;2023-03-20T02:45:43;8.20;;;2.40;;
62925;SDS011;55732;52.248;-0.844;2023-03-20T02:48:26;11.00;;;2.70;;
62925;SDS011;55732;52.248;-0.844;2023-03-20T02:51:30;10.60;;;2.30;;
62925;SDS011;55732;52.248;-0.844;2023-03-20T02:54:05;11.80;;;2.80;;
62925;SDS011;55732;52.248;-0.844;2023-03-20T02:57:01;10.40;;;2.30;;
62925;SDS011;55732;52.248;-0.844;2023-03-20T03:02:14;9.70;;;2.60;;
62925;SDS011;55732;52.248;-0.844;2023-03-20T03:04:54;7.90;;;2.10;;
62925;SDS011;55732;52.248;-0.844;2023-03-20T03:07:24;13.20;;;2.50;;
62925;SDS011;55732;52.248;-0.844;2023-03-20T03:09:59;11.60;;;2.40;;
62925;SDS011;55732;52.248;-0.844;2023-03-20T03:12:32;11.90;;;2.90;;
62925;SDS011;55732;52.248;-0.844;2023-03-20T03:15:05;9.40;;;2.30;;
62925;SDS011;55732;52.248;-0.844;2023-03-20T03:17:38;6.10;;;2.20;;
62925;SDS011;55732;52.248;-0.844;2023-03-20T03:20:14;8.20;;;2.50;;
62925;SDS011;55732;52.248;-0.844;2023-03-20T03:22:49;13.20;;;2.80;;
62925;SDS011;55732;52.248;-0.844;2023-03-20T03:25:15;7.50;;;2.30;;
62925;SDS011;55732;52.248;-0.844;2023-03-20T03:27:44;8.60;;;2.30;;
62925;SDS011;55732;52.248;-0.844;2023-03-20T03:32:46;8.40;;;2.40;;
62925;SDS011;55732;52.248;-0.844;2023-03-20T03:35:19;11.00;;;2.60;;
62925;SDS011;55732;52.248;-0.844;2023-03-20T03:37:57;11.10;;;2.50;;
62925;SDS011;55732;52.248;-0.844;2023-03-20T03:40:42;9.70;;;2.50;;
62925;SDS011;55732;52.248;-0.844;2023-03-20T03:43:17;12.00;;;2.10;;
62925;SDS011;55732;52.248;-0.844;2023-03-20T03:45:58;6.30;;;2.10;;
62925;SDS011;55732;52.248;-0.844;2023-03-20T03:48:35;7.60;;;2.60;;
62925;SDS011;55732;52.248;-0.844;2023-03-20T03:51:07;9.30;;;2.20;;
62925;SDS011;55732;52.248;-0.844;2023-03-20T03:53:40;9.80;;;2.70;;
62925;SDS011;55732;52.248;-0.844;2023-03-20T03:56:13;10.70;;;2.70;;
62925;SDS011;55732;52.248;-0.844;2023-03-20T03:58:43;8.40;;;2.60;;
62925;SDS011;55732;52.248;-0.844;2023-03-20T04:01:13;8.00;;;2.10;;
62925;SDS011;55732;52.248;-0.844;2023-03-20T04:03:43;9.00;;;2.80;;
62925;SDS011;55732;52.248;-0.844;2023-03-20T04:06:13;12.70;;;2.90;;
62925;SDS011;55732;52.248;-0.844;2023-03-20T04:11:08;10.30;;;2.30;;
62925;SDS011;55732;52.248;-0.844;2023-03-20T04:13:39;7.20;;;2.20;;
62925;SDS011;55732;52.248;-0.844;2023-03-20T04:16:06;5.70;;;2.40;;
62925;SDS011;55732;52.248;-0.844;2023-03-20T04:18:36;8.40;;;2.40;;
62925;SDS011;55732;52.248;-0.844;2023-03-20T04:21:02;7.90;;;2.30;;
62925;SDS011;55732;52.248;-0.844;2023-03-20T04:23:27;8.60;;;2.30;;
62925;SDS011;55732;52.248;-0.844;2023-03-20T04:25:52;11.20;;;2.80;;
62925;SDS011;55732;52.248;-0.844;2023-03-20T04:28:18;5.40;;;2.20;;
62925;SDS011;55732;52.248;-0.844;2023-03-20T04:30:43;8.00;;;2.60;;
62925;SDS011;55732;52.248;-0.844;2023-03-20T04:33:12;6.50;;;2.20;;
62925;SDS011;55732;52.248;-0.844;2023-03-20T04:35:37;6.80;;;2.50;;
62925;SDS011;55732;52.248;-0.844;2023-03-20T04:38:03;15.30;;;2.60;;
62925;SDS011;55732;52.248;-0.844;2023-03-20T04:40:28;13.40;;;3.00;;
62925;SDS011;55732;52.248;-0.844;2023-03-20T04:42:55;14.90;;;2.60;;
62925;SDS011;55732;52.248;-0.844;2023-03-20T04:45:21;7.70;;;2.40;;
62925;SDS011;55732;52.248;-0.844;2023-03-20T04:47:46;10.20;;;2.90;;
62925;SDS011;55732;52.248;-0.844;2023-03-20T04:50:11;12.60;;;2.70;;
62925;SDS011;55732;52.248;-0.844;2023-03-20T04:52:38;7.50;;;2.20;;
62925;SDS011;55732;52.248;-0.844;2023-03-20T04:55:03;7.90;;;2.60;;
62925;SDS011;55732;52.248;-0.844;2023-03-20T04:57:29;11.50;;;2.60;;
62925;SDS011;55732;52.248;-0.844;2023-03-20T04:59:56;5.30;;;2.30;;
62925;SDS011;55732;52.248;-0.844;2023-03-20T05:02:21;7.80;;;2.60;;
62925;SDS011;55732;52.248;-0.844;2023-03-20T05:04:47;8.10;;;2.80;;
62925;SDS011;55732;52.248;-0.844;2023-03-20T05:07:12;10.30;;;2.80;;
62925;SDS011;55732;52.248;-0.844;2023-03-20T05:09:37;9.60;;;2.20;;
62925;SDS011;55732;52.248;-0.844;2023-03-20T05:12:03;7.20;;;2.50;;
62925;SDS011;55732;52.248;-0.844;2023-03-20T05:14:29;8.70;;;3.40;;
62925;SDS011;55732;52.248;-0.844;2023-03-20T05:16:54;7.50;;;2.20;;
62925;SDS011;55732;52.248;-0.844;2023-03-20T05:19:20;9.80;;;2.30;;
62925;SDS011;55732;52.248;-0.844;2023-03-20T05:21:45;9.40;;;2.30;;
62925;SDS011;55732;52.248;-0.844;2023-03-20T05:24:11;9.10;;;2.10;;
62925;SDS011;55732;52.248;-0.844;2023-03-20T05:26:36;8.00;;;2.30;;
62925;SDS011;55732;52.248;-0.844;2023-03-20T05:29:02;11.80;;;2.40;;
62925;SDS011;55732;52.248;-0.844;2023-03-20T05:31:27;12.70;;;3.40;;
62925;SDS011;55732;52.248;-0.844;2023-03-20T05:33:52;8.10;;;2.60;;
62925;SDS011;55732;52.248;-0.844;2023-03-20T05:36:18;9.20;;;2.60;;
62925;SDS011;55732;52.248;-0.844;2023-03-20T05:38:44;6.30;;;2.20;;
62925;SDS011;55732;52.248;-0.844;2023-03-20T05:41:10;8.80;;;2.10;;
62925;SDS011;55732;52.248;-0.844;2023-03-20T05:43:35;10.40;;;2.90;;
62925;SDS011;55732;52.248;-0.844;2023-03-20T05:46:01;8.00;;;2.70;;
62925;SDS011;55732;52.248;-0.844;2023-03-20T05:48:26;10.80;;;2.70;;
62925;SDS011;55732;52.248;-0.844;2023-03-20T05:50:51;9.10;;;2.50;;
62925;SDS011;55732;52.248;-0.844;2023-03-20T05:53:17;7.70;;;2.10;;
62925;SDS011;55732;52.248;-0.844;2023-03-20T05:55:42;12.00;;;2.40;;
62925;SDS011;55732;52.248;-0.844;2023-03-20T05:58:09;10.60;;;2.60;;
62925;SDS011;55732;52.248;-0.844;2023-03-20T06:00:36;10.60;;;2.70;;
62925;SDS011;55732;52.248;-0.844;2023-03-20T06:03:02;9.10;;;3.10;;
62925;SDS011;55732;52.248;-0.844;2023-03-20T06:05:28;9.50;;;2.20;;
62925;SDS011;55732;52.248;-0.844;2023-03-20T06:07:53;8.50;;;2.80;;
62925;SDS011;55732;52.248;-0.844;2023-03-20T06:10:19;12.90;;;3.20;;
62925;SDS011;55732;52.248;-0.844;2023-03-20T06:12:45;15.70;;;2.90;;
62925;SDS011;55732;52.248;-0.844;2023-03-20T06:15:10;7.60;;;2.60;;
62925;SDS011;55732;52.248;-0.844;2023-03-20T06:17:36;6.60;;;2.40;;
62925;SDS011;55732;52.248;-0.844;2023-03-20T06:20:02;9.30;;;2.80;;
62925;SDS011;55732;52.248;-0.844;2023-03-20T06:22:27;10.20;;;2.70;;
62925;SDS011;55732;52.248;-0.844;2023-03-20T06:24:53;9.00;;;2.80;;
62925;SDS011;55732;52.248;-0.844;2023-03-20T06:27:19;10.30;;;2.80;;
62925;SDS011;55732;52.248;-0.844;2023-03-20T06:29:44;11.50;;;3.00;;
62925;SDS011;55732;52.248;-0.844;2023-03-20T06:32:10;8.40;;;2.90;;
62925;SDS011;55732;52.248;-0.844;2023-03-20T06:34:38;7.10;;;2.60;;
62925;SDS011;55732;52.248;-0.844;2023-03-20T06:37:05;10.20;;;2.60;;
62925;SDS011;55732;52.248;-0.844;2023-03-20T06:39:31;11.50;;;2.90;;
62925;SDS011;55732;52.248;-0.844;2023-03-20T06:41:56;6.80;;;2.30;;
62925;SDS011;55732;52.248;-0.844;2023-03-20T06:44:22;9.10;;;2.30;;
62925;SDS011;55732;52.248;-0.844;2023-03-20T06:46:47;11.60;;;2.70;;
62925;SDS011;55732;52.248;-0.844;2023-03-20T06:49:13;9.60;;;2.20;;
62925;SDS011;55732;52.248;-0.844;2023-03-20T06:51:39;10.60;;;2.80;;
62925;SDS011;55732;52.248;-0.844;2023-03-20T06:54:04;13.10;;;2.70;;
62925;SDS011;55732;52.248;-0.844;2023-03-20T06:56:30;10.80;;;3.20;;
62925;SDS011;55732;52.248;-0.844;2023-03-20T06:58:56;8.70;;;2.30;;
62925;SDS011;55732;52.248;-0.844;2023-03-20T07:01:22;13.80;;;3.00;;
62925;SDS011;55732;52.248;-0.844;2023-03-20T07:03:48;9.90;;;2.70;;
62925;SDS011;55732;52.248;-0.844;2023-03-20T07:06:14;7.80;;;2.70;;
62925;SDS011;55732;52.248;-0.844;2023-03-20T07:11:07;13.20;;;2.70;;
62925;SDS011;55732;52.248;-0.844;2023-03-20T07:13:34;9.00;;;2.70;;
62925;SDS011;55732;52.248;-0.844;2023-03-20T07:16:00;7.80;;;2.30;;
62925;SDS011;55732;52.248;-0.844;2023-03-20T07:18:27;9.90;;;3.00;;
62925;SDS011;55732;52.248;-0.844;2023-03-20T07:20:53;12.10;;;2.70;;
62925;SDS011;55732;52.248;-0.844;2023-03-20T07:23:23;10.30;;;2.90;;
62925;SDS011;55732;52.248;-0.844;2023-03-20T07:25:49;9.30;;;2.60;;
62925;SDS011;55732;52.248;-0.844;2023-03-20T07:28:14;9.70;;;2.50;;
62925;SDS011;55732;52.248;-0.844;2023-03-20T07:30:40;8.80;;;2.70;;
62925;SDS011;55732;52.248;-0.844;2023-03-20T07:33:06;10.20;;;2.80;;
62925;SDS011;55732;52.248;-0.844;2023-03-20T07:35:31;16.60;;;2.50;;
62925;SDS011;55732;52.248;-0.844;2023-03-20T07:37:57;7.00;;;2.60;;
62925;SDS011;55732;52.248;-0.844;2023-03-20T07:40:23;11.40;;;2.70;;
62925;SDS011;55732;52.248;-0.844;2023-03-20T07:42:48;11.70;;;2.50;;
62925;SDS011;55732;52.248;-0.844;2023-03-20T07:45:14;8.60;;;2.30;;
62925;SDS011;55732;52.248;-0.844;2023-03-20T07:47:42;6.60;;;2.30;;
62925;SDS011;55732;52.248;-0.844;2023-03-20T07:50:09;10.60;;;2.80;;
62925;SDS011;55732;52.248;-0.844;2023-03-20T07:52:36;9.00;;;2.60;;
62925;SDS011;55732;52.248;-0.844;2023-03-20T07:55:01;7.20;;;3.00;;
62925;SDS011;55732;52.248;-0.844;2023-03-20T07:57:27;10.20;;;2.60;;
62925;SDS011;55732;52.248;-0.844;2023-03-20T07:59:52;11.00;;;2.50;;
62925;SDS011;55732;52.248;-0.844;2023-03-20T08:02:17;6.80;;;2.70;;
62925;SDS011;55732;52.248;-0.844;2023-03-20T08:04:43;14.10;;;3.10;;
62925;SDS011;55732;52.248;-0.844;2023-03-20T08:07:10;10.50;;;2.60;;
62925;SDS011;55732;52.248;-0.844;2023-03-20T08:09:36;7.50;;;2.70;;
62925;SDS011;55732;52.248;-0.844;2023-03-20T08:12:01;13.30;;;3.20;;
62925;SDS011;55732;52.248;-0.844;2023-03-20T08:14:27;8.90;;;3.60;;
62925;SDS011;55732;52.248;-0.844;2023-03-20T08:16:53;10.10;;;3.20;;
62925;SDS011;55732;52.248;-0.844;2023-03-20T08:19:18;12.90;;;3.40;;
62925;SDS011;55732;52.248;-0.844;2023-03-20T08:21:44;5.10;;;2.90;;
62925;SDS011;55732;52.248;-0.844;2023-03-20T08:24:09;9.80;;;2.50;;
62925;SDS011;55732;52.248;-0.844;2023-03-20T08:26:35;4.00;;;2.10;;
62925;SDS011;55732;52.248;-0.844;2023-03-20T08:29:00;9.10;;;2.50;;
62925;SDS011;55732;52.248;-0.844;2023-03-20T08:31:26;5.10;;;2.10;;
62925;SDS011;55732;52.248;-0.844;2023-03-20T08:33:52;8.60;;;2.60;;
62925;SDS011;55732;52.248;-0.844;2023-03-20T08:36:17;6.50;;;2.20;;
62925;SDS011;55732;52.248;-0.844;2023-03-20T08:38:47;6.20;;;2.20;;
62925;SDS011;55732;52.248;-0.844;2023-03-20T08:41:13;11.50;;;2.60;;
62925;SDS011;55732;52.248;-0.844;2023-03-20T08:43:39;7.30;;;2.20;;
62925;SDS011;55732;52.248;-0.844;2023-03-20T08:46:05;5.90;;;2.30;;
62925;SDS011;55732;52.248;-0.844;2023-03-20T08:48:30;4.60;;;1.80;;
62925;SDS011;55732;52.248;-0.844;2023-03-20T08:50:56;5.30;;;2.40;;
62925;SDS011;55732;52.248;-0.844;2023-03-20T08:53:22;5.50;;;2.00;;
62925;SDS011;55732;52.248;-0.844;2023-03-20T08:55:48;4.40;;;1.90;;
62925;SDS011;55732;52.248;-0.844;2023-03-20T08:58:14;3.30;;;1.90;;
62925;SDS011;55732;52.248;-0.844;2023-03-20T09:00:40;2.40;;;1.80;;
62925;SDS011;55732;52.248;-0.844;2023-03-20T09:03:06;3.90;;;1.90;;
62925;SDS011;55732;52.248;-0.844;2023-03-20T09:08:00;3.10;;;1.80;;
62925;SDS011;55732;52.248;-0.844;2023-03-20T09:10:26;3.40;;;1.90;;
62925;SDS011;55732;52.248;-0.844;2023-03-20T09:12:51;2.10;;;1.90;;
62925;SDS011;55732;52.248;-0.844;2023-03-20T09:15:17;2.70;;;2.00;;
62925;SDS011;55732;52.248;-0.844;2023-03-20T09:17:42;3.60;;;2.30;;
62925;SDS011;55732;52.248;-0.844;2023-03-20T09:20:08;2.30;;;1.80;;
62925;SDS011;55732;52.248;-0.844;2023-03-20T09:22:34;2.30;;;1.70;;
62925;SDS011;55732;52.248;-0.844;2023-03-20T09:24:59;2.30;;;2.10;;
62925;SDS011;55732;52.248;-0.844;2023-03-20T09:27:25;2.60;;;1.90;;
62925;SDS011;55732;52.248;-0.844;2023-03-20T09:29:50;3.40;;;2.10;;
62925;SDS011;55732;52.248;-0.844;2023-03-20T09:32:16;4.50;;;2.10;;
62925;SDS011;55732;52.248;-0.844;2023-03-20T09:34:41;2.90;;;2.00;;
62925;SDS011;55732;52.248;-0.844;2023-03-20T09:37:07;3.20;;;2.20;;
62925;SDS011;55732;52.248;-0.844;2023-03-20T09:39:33;3.10;;;2.10;;
62925;SDS011;55732;52.248;-0.844;2023-03-20T09:42:01;3.10;;;2.10;;
62925;SDS011;55732;52.248;-0.844;2023-03-20T09:47:18;3.80;;;3.30;;
62925;SDS011;55732;52.248;-0.844;2023-03-20T09:55:35;2.30;;;2.00;;
62925;SDS011;55732;52.248;-0.844;2023-03-20T09:58:03;3.00;;;1.90;;
62925;SDS011;55732;52.248;-0.844;2023-03-20T10:00:34;5.40;;;2.30;;
62925;SDS011;55732;52.248;-0.844;2023-03-20T10:03:05;4.10;;;2.20;;
62925;SDS011;55732;52.248;-0.844;2023-03-20T10:16:26;3.20;;;1.80;;
62925;SDS011;55732;52.248;-0.844;2023-03-20T10:18:54;1.90;;;1.60;;
62925;SDS011;55732;52.248;-0.844;2023-03-20T10:21:35;3.70;;;2.00;;
62925;SDS011;55732;52.248;-0.844;2023-03-20T10:24:03;2.90;;;1.70;;
62925;SDS011;55732;52.248;-0.844;2023-03-20T10:26:31;2.50;;;1.60;;
62925;SDS011;55732;52.248;-0.844;2023-03-20T10:29:01;1.70;;;1.60;;
62925;SDS011;55732;52.248;-0.844;2023-03-20T10:31:47;1.90;;;1.70;;
62925;SDS011;55732;52.248;-0.844;2023-03-20T10:37:03;1.70;;;1.60;;
62925;SDS011;55732;52.248;-0.844;2023-03-20T10:42:48;3.30;;;1.70;;
62925;SDS011;55732;52.248;-0.844;2023-03-20T10:47:42;4.00;;;1.80;;
62925;SDS011;55732;52.248;-0.844;2023-03-20T10:50:16;3.10;;;1.90;;
62925;SDS011;55732;52.248;-0.844;2023-03-20T10:52:44;2.50;;;1.90;;
62925;SDS011;55732;52.248;-0.844;2023-03-20T10:55:17;2.70;;;1.80;;
62925;SDS011;55732;52.248;-0.844;2023-03-20T10:57:48;2.60;;;2.00;;
62925;SDS011;55732;52.248;-0.844;2023-03-20T11:00:20;2.40;;;1.80;;
62925;SDS011;55732;52.248;-0.844;2023-03-20T11:02:47;1.70;;;1.60;;
62925;SDS011;55732;52.248;-0.844;2023-03-20T11:05:23;2.60;;;1.80;;
62925;SDS011;55732;52.248;-0.844;2023-03-20T11:08:00;1.70;;;1.50;;
62925;SDS011;55732;52.248;-0.844;2023-03-20T11:10:26;2.40;;;1.70;;
62925;SDS011;55732;52.248;-0.844;2023-03-20T11:12:52;3.00;;;1.70;;
62925;SDS011;55732;52.248;-0.844;2023-03-20T11:18:00;3.20;;;2.00;;
62925;SDS011;55732;52.248;-0.844;2023-03-20T11:20:38;2.80;;;1.60;;
62925;SDS011;55732;52.248;-0.844;2023-03-20T11:23:13;2.30;;;1.40;;
62925;SDS011;55732;52.248;-0.844;2023-03-20T11:28:56;1.70;;;1.60;;
62925;SDS011;55732;52.248;-0.844;2023-03-20T11:36:38;3.30;;;1.70;;
62925;SDS011;55732;52.248;-0.844;2023-03-20T11:44:26;2.00;;;1.50;;
62925;SDS011;55732;52.248;-0.844;2023-03-20T11:46:55;3.50;;;1.90;;
62925;SDS011;55732;52.248;-0.844;2023-03-20T11:49:29;1.60;;;1.40;;
62925;SDS011;55732;52.248;-0.844;2023-03-20T11:52:01;2.70;;;1.60;;
62925;SDS011;55732;52.248;-0.844;2023-03-20T11:54:35;4.40;;;2.30;;
62925;SDS011;55732;52.248;-0.844;2023-03-20T11:57:03;1.80;;;1.70;;
62925;SDS011;55732;52.248;-0.844;2023-03-20T11:59:31;1.80;;;1.50;;
62925;SDS011;55732;52.248;-0.844;2023-03-20T12:02:00;2.60;;;1.90;;
62925;SDS011;55732;52.248;-0.844;2023-03-20T12:04:35;2.10;;;1.90;;
62925;SDS011;55732;52.248;-0.844;2023-03-20T12:09:47;4.10;;;3.10;;
62925;SDS011;55732;52.248;-0.844;2023-03-20T12:14:57;2.10;;;1.90;;
62925;SDS011;55732;52.248;-0.844;2023-03-20T12:17:56;2.60;;;1.70;;
62925;SDS011;55732;52.248;-0.844;2023-03-20T12:20:45;1.70;;;1.60;;
62925;SDS011;55732;52.248;-0.844;2023-03-20T12:33:59;1.30;;;1.20;;
62925;SDS011;55732;52.248;-0.844;2023-03-20T12:36:38;2.50;;;1.30;;
62925;SDS011;55732;52.248;-0.844;2023-03-20T12:39:11;1.60;;;1.20;;
62925;SDS011;55732;52.248;-0.844;2023-03-20T12:44:40;0.80;;;0.80;;
62925;SDS011;55732;52.248;-0.844;2023-03-20T12:47:12;1.10;;;1.10;;
62925;SDS011;55732;52.248;-0.844;2023-03-20T13:06:31;1.30;;;1.00;;
62925;SDS011;55732;52.248;-0.844;2023-03-20T13:15:09;4.00;;;1.30;;
62925;SDS011;55732;52.248;-0.844;2023-03-20T13:17:39;1.20;;;1.10;;
62925;SDS011;55732;52.248;-0.844;2023-03-20T13:20:35;0.90;;;0.90;;
62925;SDS011;55732;52.248;-0.844;2023-03-20T13:23:22;1.00;;;0.90;;
62925;SDS011;55732;52.248;-0.844;2023-03-20T13:26:02;1.40;;;1.20;;
62925;SDS011;55732;52.248;-0.844;2023-03-20T13:34:01;0.80;;;0.80;;
62925;SDS011;55732;52.248;-0.844;2023-03-20T13:39:21;1.00;;;1.00;;
62925;SDS011;55732;52.248;-0.844;2023-03-20T13:41:53;0.70;;;0.70;;
62925;SDS011;55732;52.248;-0.844;2023-03-20T13:44:21;0.80;;;0.80;;
62925;SDS011;55732;52.248;-0.844;2023-03-20T13:46:54;1.00;;;0.60;;
62925;SDS011;55732;52.248;-0.844;2023-03-20T13:49:36;0.80;;;0.80;;
62925;SDS011;55732;52.248;-0.844;2023-03-20T13:52:18;0.90;;;0.70;;
62925;SDS011;55732;52.248;-0.844;2023-03-20T14:03:02;0.70;;;0.70;;
62925;SDS011;55732;52.248;-0.844;2023-03-20T14:05:23;0.70;;;0.70;;
62925;SDS011;55732;52.248;-0.844;2023-03-20T14:12:59;0.80;;;0.80;;
62925;SDS011;55732;52.248;-0.844;2023-03-20T14:15:34;2.40;;;0.70;;
62925;SDS011;55732;52.248;-0.844;2023-03-20T14:18:03;0.80;;;0.80;;
62925;SDS011;55732;52.248;-0.844;2023-03-20T14:20:36;1.00;;;0.80;;
62925;SDS011;55732;52.248;-0.844;2023-03-20T14:23:03;1.50;;;0.80;;
62925;SDS011;55732;52.248;-0.844;2023-03-20T14:25:35;1.20;;;1.00;;
62925;SDS011;55732;52.248;-0.844;2023-03-20T14:30:46;0.50;;;0.50;;
62925;SDS011;55732;52.248;-0.844;2023-03-20T14:35:42;0.70;;;0.70;;
62925;SDS011;55732;52.248;-0.844;2023-03-20T14:38:26;0.90;;;0.80;;
62925;SDS011;55732;52.248;-0.844;2023-03-20T14:41:17;2.40;;;0.90;;
62925;SDS011;55732;52.248;-0.844;2023-03-20T14:43:59;1.40;;;1.00;;
62925;SDS011;55732;52.248;-0.844;2023-03-20T14:46:58;4.00;;;1.00;;
62925;SDS011;55732;52.248;-0.844;2023-03-20T14:51:59;1.40;;;1.00;;
62925;SDS011;55732;52.248;-0.844;2023-03-20T14:54:38;1.00;;;1.00;;
62925;SDS011;55732;52.248;-0.844;2023-03-20T14:57:09;1.80;;;1.20;;
62925;SDS011;55732;52.248;-0.844;2023-03-20T14:59:46;1.40;;;1.10;;
62925;SDS011;55732;52.248;-0.844;2023-03-20T15:02:26;1.30;;;1.20;;
62925;SDS011;55732;52.248;-0.844;2023-03-20T15:04:58;2.60;;;1.40;;
62925;SDS011;55732;52.248;-0.844;2023-03-20T15:07:24;1.20;;;1.00;;
62925;SDS011;55732;52.248;-0.844;2023-03-20T15:09:54;1.00;;;0.90;;
62925;SDS011;55732;52.248;-0.844;2023-03-20T15:12:28;1.00;;;0.90;;
62925;SDS011;55732;52.248;-0.844;2023-03-20T15:15:00;1.10;;;1.00;;
62925;SDS011;55732;52.248;-0.844;2023-03-20T15:17:34;1.00;;;0.90;;
62925;SDS011;55732;52.248;-0.844;2023-03-20T15:22:53;1.00;;;0.90;;
62925;SDS011;55732;52.248;-0.844;2023-03-20T15:25:27;0.90;;;0.90;;
62925;SDS011;55732;52.248;-0.844;2023-03-20T15:27:56;1.20;;;1.10;;
62925;SDS011;55732;52.248;-0.844;2023-03-20T15:30:22;2.10;;;1.10;;
62925;SDS011;55732;52.248;-0.844;2023-03-20T15:32:48;3.20;;;0.90;;
62925;SDS011;55732;52.248;-0.844;2023-03-20T15:35:19;0.90;;;0.90;;
62925;SDS011;55732;52.248;-0.844;2023-03-20T15:37:47;1.00;;;1.00;;
62925;SDS011;55732;52.248;-0.844;2023-03-20T15:45:32;1.30;;;1.20;;
62925;SDS011;55732;52.248;-0.844;2023-03-20T15:48:06;2.20;;;1.00;;
62925;SDS011;55732;52.248;-0.844;2023-03-20T15:50:34;1.20;;;1.00;;
62925;SDS011;55732;52.248;-0.844;2023-03-20T15:53:05;1.00;;;1.00;;
62925;SDS011;55732;52.248;-0.844;2023-03-20T15:55:35;1.50;;;1.10;;
62925;SDS011;55732;52.248;-0.844;2023-03-20T15:58:02;1.10;;;1.10;;
62925;SDS011;55732;52.248;-0.844;2023-03-20T16:00:29;1.30;;;1.10;;
62925;SDS011;55732;52.248;-0.844;2023-03-20T16:03:05;1.10;;;1.10;;
62925;SDS011;55732;52.248;-0.844;2023-03-20T16:05:33;1.40;;;1.20;;
62925;SDS011;55732;52.248;-0.844;2023-03-20T16:11:07;1.30;;;1.20;;
62925;SDS011;55732;52.248;-0.844;2023-03-20T16:13:42;1.10;;;1.10;;
62925;SDS011;55732;52.248;-0.844;2023-03-20T16:16:14;1.10;;;1.10;;
62925;SDS011;55732;52.248;-0.844;2023-03-20T16:18:42;1.00;;;1.00;;
62925;SDS011;55732;52.248;-0.844;2023-03-20T16:21:14;1.40;;;1.30;;
62925;SDS011;55732;52.248;-0.844;2023-03-20T16:23:51;2.00;;;1.30;;
62925;SDS011;55732;52.248;-0.844;2023-03-20T16:26:20;3.00;;;1.40;;
62925;SDS011;55732;52.248;-0.844;2023-03-20T16:28:54;1.30;;;1.30;;
62925;SDS011;55732;52.248;-0.844;2023-03-20T16:33:56;1.70;;;1.30;;
62925;SDS011;55732;52.248;-0.844;2023-03-20T16:36:30;1.40;;;1.30;;
62925;SDS011;55732;52.248;-0.844;2023-03-20T16:39:00;1.70;;;1.30;;
62925;SDS011;55732;52.248;-0.844;2023-03-20T16:43:55;1.50;;;1.40;;
62925;SDS011;55732;52.248;-0.844;2023-03-20T16:46:24;2.50;;;1.60;;
62925;SDS011;55732;52.248;-0.844;2023-03-20T16:48:58;1.60;;;1.50;;
62925;SDS011;55732;52.248;-0.844;2023-03-20T16:51:59;1.30;;;1.30;;
62925;SDS011;55732;52.248;-0.844;2023-03-20T16:54:29;1.70;;;1.60;;
62925;SDS011;55732;52.248;-0.844;2023-03-20T16:56:57;2.00;;;1.60;;
62925;SDS011;55732;52.248;-0.844;2023-03-20T16:59:24;1.80;;;1.70;;
62925;SDS011;55732;52.248;-0.844;2023-03-20T17:01:51;1.40;;;1.30;;
62925;SDS011;55732;52.248;-0.844;2023-03-20T17:04:28;1.50;;;1.40;;
62925;SDS011;55732;52.248;-0.844;2023-03-20T17:06:59;1.80;;;1.70;;
62925;SDS011;55732;52.248;-0.844;2023-03-20T17:09:30;2.10;;;1.70;;
62925;SDS011;55732;52.248;-0.844;2023-03-20T17:11:57;1.80;;;1.60;;
62925;SDS011;55732;52.248;-0.844;2023-03-20T17:14:50;2.30;;;1.60;;
62925;SDS011;55732;52.248;-0.844;2023-03-20T17:17:18;2.80;;;1.80;;
62925;SDS011;55732;52.248;-0.844;2023-03-20T17:19:45;1.40;;;1.40;;
62925;SDS011;55732;52.248;-0.844;2023-03-20T17:22:23;1.50;;;1.40;;
62925;SDS011;55732;52.248;-0.844;2023-03-20T17:24:50;1.50;;;1.40;;
62925;SDS011;55732;52.248;-0.844;2023-03-20T17:27:17;1.60;;;1.40;;
62925;SDS011;55732;52.248;-0.844;2023-03-20T17:29:44;1.60;;;1.10;;
62925;SDS011;55732;52.248;-0.844;2023-03-20T17:32:11;1.50;;;1.30;;
62925;SDS011;55732;52.248;-0.844;2023-03-20T17:34:38;1.30;;;1.10;;
62925;SDS011;55732;52.248;-0.844;2023-03-20T17:37:04;2.40;;;1.40;;
62925;SDS011;55732;52.248;-0.844;2023-03-20T17:39:30;2.00;;;1.50;;
62925;SDS011;55732;52.248;-0.844;2023-03-20T17:41:56;4.50;;;1.70;;
62925;SDS011;55732;52.248;-0.844;2023-03-20T17:44:22;4.70;;;1.80;;
62925;SDS011;55732;52.248;-0.844;2023-03-20T17:46:47;2.90;;;2.10;;
62925;SDS011;55732;52.248;-0.844;2023-03-20T17:49:14;2.20;;;1.80;;
62925;SDS011;55732;52.248;-0.844;2023-03-20T17:51:43;2.70;;;2.30;;
62925;SDS011;55732;52.248;-0.844;2023-03-20T17:54:09;3.10;;;2.80;;